Салова 70

Карта отелей и гостиниц, располагающихся рядом с аэропортом Салова 70 :

Салова 70 Санкт-Петербург 59° 53' 8.9988" N, 30° 22' 34.2588" E
Код аэродрома ИКАО
ULLT
Код аэродрома RU
УЛЛТ
Координаты
N59.88583° E030.37618°
Превышение над уровнем моря
12
Основная полоса
Курс магнитный
Длина основной ВПП
Ширина основной ВПП
Покрытие основной ВПП
Освещение ВПП
Тип: 
Вертодром
Класс аэродрома: 
Принадлежность: 
АОН
Статус: 
Действующий
Сайт: 
E-mail аэродрома: 
Страна: 
Россия
Регион: 
Санкт-Петербург
Город: 
Дополнительная информация: 
Оператор: собственник ПП ЗАО «Санкт-Петербургский Автобизнесцентр». Название ПП по адресу: 192282 г. Санкт-Петербург, ул. Салова, д 70. ВС до 1500 кг. Запретный сектор для взлета и посадки 260°-090° (магн.). АНП зарегистрирован в СЗ МТУ ВТ ФАВТ в 2011.

Найти трансфер

С помощью этой формы Вы можете найти трансфер из аэропорта Салова 70 в город, аэропорт или вокзал:

Карта места

Javascript is required to view this map.

Погода в аэропортах:

Авиационная погода в Самаре

Регион: 
Погода METAR: 
UWWW 171530Z 29002MPS 270V330 9999 -RA NSC 07/02 Q1015 R33/190055 NOSIG RMK QFE751/1001
Время наблюдения
2021-09-17T15:30:00Z
Температура C
7.0
Точка росы
2.0
Направление ветра
290
Скорость ветра (узлы)
4
Метео видимость
6.21
Явления погоды
-RA
Условия полета
VFR
Аэропорт подробнее: 

Авиационная погода в Полярном

Регион: 
Погода METAR: 
UERP 171600Z 29003MPS 4000 -SN BKN008 OVC100 M02/M02 Q1014 RMK QFE716
Время наблюдения
2021-09-17T16:00:00Z
Температура C
-2.0
Точка росы
-2.0
Направление ветра
290
Скорость ветра (узлы)
6
Метео видимость
2.49
Явления погоды
-SN
Условия полета
IFR
Аэропорт подробнее: 

Авиационная погода в Тбилиси

Регион: 
Погода METAR: 
UGTB 171530Z 33017KT 9999 -SHRA SCT055CB 18/15 Q1015 R31L/19//60 NOSIG
Время наблюдения
2021-09-17T15:30:00Z
Температура C
18.0
Точка росы
15.0
Направление ветра
330
Скорость ветра (узлы)
17
Метео видимость
6.21
Явления погоды
-SHRA
Условия полета
VFR

Авиационная погода в Храброво

Регион: 
Погода METAR: 
UMKK 171530Z 08005MPS 5000 -DZ BR OVC004 13/13 Q1010 R06/95D NOSIG RMK QBB120 OBST OBSC QFE756/1008
Время наблюдения
2021-09-17T15:30:00Z
Температура C
13.0
Точка росы
13.0
Направление ветра
80
Скорость ветра (узлы)
10
Метео видимость
3.11
Явления погоды
-DZ BR
Условия полета
LIFR
Аэропорт подробнее: